createdAt,value
2023-01-19T00:00:58.812Z,24.00
2023-01-19T00:03:25.614Z,24.50
2023-01-19T00:05:52.834Z,22.30
2023-01-19T00:08:19.756Z,22.80
2023-01-19T00:10:48.302Z,20.20
2023-01-19T00:13:15.516Z,24.70
2023-01-19T00:15:43.053Z,23.20
2023-01-19T00:18:11.127Z,23.00
2023-01-19T00:20:39.244Z,23.70
2023-01-19T00:23:08.378Z,29.00
2023-01-19T00:25:36.276Z,32.10
2023-01-19T00:28:03.131Z,20.10
2023-01-19T00:30:30.208Z,20.60
2023-01-19T00:32:57.346Z,25.10
2023-01-19T00:35:24.238Z,25.20
2023-01-19T00:37:51.263Z,24.00
2023-01-19T00:40:18.285Z,28.30
2023-01-19T00:42:45.291Z,18.40
2023-01-19T00:45:13.937Z,22.70
2023-01-19T00:47:40.889Z,21.30
2023-01-19T00:50:13.020Z,25.00
2023-01-19T00:52:40.414Z,29.20
2023-01-19T00:55:08.165Z,21.00
2023-01-19T00:57:35.481Z,22.30
2023-01-19T01:00:05.952Z,22.30
2023-01-19T01:02:33.480Z,27.90
2023-01-19T01:05:02.888Z,17.40
2023-01-19T01:07:30.260Z,16.20
2023-01-19T01:09:57.484Z,24.30
2023-01-19T01:12:24.350Z,24.90
2023-01-19T01:14:51.270Z,20.60
2023-01-19T01:17:24.941Z,20.80
2023-01-19T01:19:53.052Z,18.30
2023-01-19T01:22:19.896Z,19.70
2023-01-19T01:24:46.691Z,18.30
2023-01-19T01:27:13.500Z,22.40
2023-01-19T01:29:41.442Z,14.50
2023-01-19T01:32:08.531Z,15.30
2023-01-19T01:34:36.047Z,13.10
2023-01-19T01:37:03.099Z,22.10
2023-01-19T01:39:29.983Z,17.00
2023-01-19T01:41:57.615Z,18.90
2023-01-19T01:44:54.053Z,17.70
2023-01-19T01:47:43.415Z,16.50
2023-01-19T01:50:13.178Z,21.60
2023-01-19T01:52:43.935Z,13.30
2023-01-19T01:55:30.680Z,15.60
2023-01-19T01:57:59.571Z,12.90
2023-01-19T02:00:26.420Z,19.50
2023-01-19T02:03:00.463Z,15.90
2023-01-19T02:05:29.720Z,19.10
2023-01-19T02:08:39.318Z,15.60
2023-01-19T02:11:24.877Z,15.60
2023-01-19T02:13:51.806Z,16.30
2023-01-19T02:16:18.641Z,19.90
2023-01-19T02:18:45.507Z,14.90
2023-01-19T02:21:15.479Z,13.90
2023-01-19T02:23:52.751Z,17.00
2023-01-19T02:26:24.651Z,18.90
2023-01-19T02:29:02.249Z,18.80
2023-01-19T02:31:30.056Z,21.20
2023-01-19T02:33:57.493Z,29.20
2023-01-19T02:36:27.393Z,18.60
2023-01-19T02:38:56.249Z,25.10
2023-01-19T02:41:28.803Z,16.90
2023-01-19T02:43:56.526Z,17.20
2023-01-19T02:46:23.511Z,25.30
2023-01-19T02:48:50.475Z,13.90
2023-01-19T02:51:26.411Z,16.80
2023-01-19T02:54:18.561Z,17.10
2023-01-19T02:56:51.660Z,15.30
2023-01-19T02:59:41.849Z,12.40
2023-01-19T03:02:33.354Z,15.40
2023-01-19T03:05:18.302Z,12.90
2023-01-19T03:07:50.542Z,14.60
2023-01-19T03:10:22.536Z,11.10
2023-01-19T03:13:03.513Z,14.30
2023-01-19T03:16:15.475Z,12.30
2023-01-19T03:18:43.951Z,17.50
2023-01-19T03:21:10.899Z,15.60
2023-01-19T03:23:38.655Z,18.70
2023-01-19T03:26:05.531Z,16.00
2023-01-19T03:28:32.439Z,19.10
2023-01-19T03:31:03.295Z,21.00
2023-01-19T03:33:33.988Z,22.60
2023-01-19T03:36:29.699Z,16.70
2023-01-19T03:38:57.625Z,15.20
2023-01-19T03:41:24.522Z,15.00
2023-01-19T03:43:52.179Z,15.20
2023-01-19T03:46:19.619Z,15.40
2023-01-19T03:48:46.901Z,14.50
2023-01-19T07:52:54.315Z,19.80
2023-01-19T07:55:21.379Z,19.10
2023-01-19T07:57:51.119Z,24.70
2023-01-19T08:00:21.961Z,22.30
2023-01-19T08:02:51.862Z,22.60
2023-01-19T08:05:19.397Z,19.10
2023-01-19T08:07:46.775Z,16.70
2023-01-19T08:10:14.344Z,20.20
2023-01-19T08:12:42.279Z,18.40
2023-01-19T08:15:10.366Z,21.30
2023-01-19T08:17:37.267Z,21.60
2023-01-19T08:20:04.651Z,24.80
2023-01-19T08:22:31.524Z,21.00
2023-01-19T08:24:58.400Z,13.90
2023-01-19T08:27:25.336Z,11.30
2023-01-19T08:29:52.200Z,11.50
2023-01-19T08:32:19.328Z,11.60
2023-01-19T08:34:46.298Z,8.70
2023-01-19T08:37:13.606Z,13.30
2023-01-19T08:39:40.487Z,13.30
2023-01-19T08:42:07.439Z,10.30
2023-01-19T08:44:34.332Z,11.60
2023-01-19T08:47:01.261Z,10.80
2023-01-19T08:49:28.204Z,14.60
2023-01-19T08:51:55.164Z,19.10
2023-01-19T08:54:23.188Z,27.30
2023-01-19T08:56:50.173Z,28.40
2023-01-19T08:59:17.108Z,29.20
2023-01-19T09:01:44.944Z,32.60
2023-01-19T09:04:12.018Z,33.20
2023-01-19T09:06:38.884Z,31.80
2023-01-19T09:09:05.912Z,41.40
2023-01-19T09:11:33.326Z,36.10
2023-01-19T09:14:00.145Z,36.40
2023-01-19T09:16:27.511Z,31.90
2023-01-19T09:18:54.816Z,27.00
2023-01-19T09:21:21.760Z,29.40
2023-01-19T09:23:49.428Z,34.10
2023-01-19T09:26:16.833Z,24.90
2023-01-19T09:28:43.592Z,27.50
2023-01-19T09:31:10.533Z,27.00
2023-01-19T09:33:37.804Z,22.80
2023-01-19T09:36:04.956Z,24.40
2023-01-19T09:38:33.148Z,21.50
2023-01-19T09:41:00.834Z,24.00
2023-01-19T09:43:41.139Z,21.80
2023-01-19T09:46:16.959Z,20.80
2023-01-19T09:48:49.775Z,19.50
2023-01-19T09:51:22.070Z,21.50
2023-01-19T09:53:52.125Z,21.40
2023-01-19T09:56:20.299Z,19.70
2023-01-19T09:58:48.755Z,22.80
2023-01-19T10:01:24.549Z,19.20
2023-01-19T10:03:53.679Z,18.70
2023-01-19T10:06:20.636Z,20.20
2023-01-19T10:09:00.953Z,24.70
2023-01-19T10:11:51.093Z,23.30
2023-01-19T10:14:29.501Z,24.90
2023-01-19T10:17:06.179Z,24.10
2023-01-19T10:19:38.786Z,20.40
2023-01-19T10:22:21.684Z,20.50
2023-01-19T10:24:50.210Z,20.30
2023-01-19T10:27:18.148Z,24.00
2023-01-19T10:29:45.283Z,24.30
2023-01-19T10:32:17.474Z,22.80
2023-01-19T10:34:44.381Z,22.30
2023-01-19T10:37:17.385Z,22.50
2023-01-19T10:40:31.318Z,24.60
2023-01-19T10:42:58.782Z,19.20
2023-01-19T10:45:29.466Z,18.60
2023-01-19T10:47:59.380Z,19.10
2023-01-19T10:50:30.912Z,20.10
2023-01-19T10:53:03.736Z,20.20
2023-01-19T10:55:32.015Z,22.40
2023-01-19T10:57:59.018Z,22.50
2023-01-19T11:00:40.425Z,23.40
2023-01-19T11:03:25.481Z,20.80
2023-01-19T11:05:52.592Z,24.00
2023-01-19T11:08:37.863Z,23.60
2023-01-19T11:11:05.350Z,20.10
2023-01-19T11:13:32.784Z,24.30
2023-01-19T11:16:29.198Z,23.50
2023-01-19T11:18:57.211Z,20.90
2023-01-19T11:21:28.076Z,22.50
2023-01-19T11:23:59.367Z,17.50
2023-01-19T11:26:48.087Z,27.00
2023-01-19T11:29:25.983Z,24.80
2023-01-19T11:31:53.601Z,20.30
2023-01-19T11:34:34.641Z,27.80
2023-01-19T11:37:03.347Z,24.50
2023-01-19T11:39:31.886Z,21.70
2023-01-19T11:42:02.830Z,23.90
2023-01-19T11:44:32.839Z,21.90
2023-01-19T11:47:01.296Z,22.40
2023-01-19T11:49:44.566Z,25.20
2023-01-19T11:52:30.160Z,21.20
2023-01-19T11:55:19.045Z,25.20
2023-01-19T11:57:47.741Z,38.50
2023-01-19T12:00:20.250Z,25.60
2023-01-19T12:02:47.053Z,30.00
2023-01-19T12:05:16.138Z,34.50
2023-01-19T12:07:43.013Z,30.80
2023-01-19T12:10:29.892Z,23.00
2023-01-19T12:12:56.736Z,32.40
2023-01-19T12:15:29.692Z,27.50
2023-01-19T16:21:17.694Z,55.70
2023-01-19T16:23:44.669Z,52.20
2023-01-19T16:26:34.695Z,54.00
2023-01-19T16:29:08.014Z,57.30
2023-01-19T16:34:02.123Z,36.90
2023-01-19T16:36:30.420Z,35.60
2023-01-19T16:39:01.739Z,47.10
2023-01-19T16:41:28.661Z,48.10
2023-01-19T16:43:56.490Z,38.90
2023-01-19T16:46:25.092Z,37.60
2023-01-19T16:48:52.092Z,37.90
2023-01-19T16:51:20.260Z,41.00
2023-01-19T16:53:49.074Z,35.90
2023-01-19T16:56:15.951Z,33.70
2023-01-19T16:58:43.171Z,39.60
2023-01-19T17:01:15.291Z,33.70
2023-01-19T17:03:42.780Z,34.20
2023-01-19T17:06:11.345Z,25.70
2023-01-19T17:08:38.474Z,26.90
2023-01-19T17:11:20.881Z,40.40
2023-01-19T17:13:48.952Z,33.40
2023-01-19T17:16:15.881Z,40.00
2023-01-19T17:18:42.866Z,36.10
2023-01-19T17:21:10.260Z,31.70
2023-01-19T17:23:37.968Z,20.90
2023-01-19T17:26:05.142Z,38.80
2023-01-19T17:28:32.014Z,38.10
2023-01-19T17:31:22.276Z,23.50
2023-01-19T17:33:49.974Z,34.80
2023-01-19T17:36:22.594Z,32.70
2023-01-19T17:38:49.969Z,35.00
2023-01-19T17:41:24.532Z,28.70
2023-01-19T17:43:51.736Z,26.00
2023-01-19T17:46:19.706Z,32.90
2023-01-19T17:48:56.469Z,29.70
2023-01-19T17:51:23.575Z,29.30
2023-01-19T17:53:50.558Z,20.80
2023-01-19T17:56:21.951Z,33.50
2023-01-19T17:58:49.051Z,23.50
2023-01-19T18:01:17.635Z,34.80
2023-01-19T18:03:44.670Z,25.90
2023-01-19T18:06:11.649Z,23.10
2023-01-19T18:08:39.865Z,30.30
2023-01-19T18:11:06.908Z,21.40
2023-01-19T18:13:33.919Z,26.50
2023-01-19T18:16:24.921Z,23.00
2023-01-19T18:18:53.661Z,25.00
2023-01-19T18:21:21.721Z,26.60
2023-01-19T18:23:49.670Z,30.60
2023-01-19T18:26:20.897Z,23.80
2023-01-19T18:28:48.157Z,24.60
2023-01-19T18:31:16.685Z,27.90
2023-01-19T18:33:43.955Z,21.80
2023-01-19T18:36:10.979Z,24.40
2023-01-19T18:38:38.164Z,23.00
2023-01-19T18:41:10.104Z,25.90
2023-01-19T18:43:37.029Z,31.80
2023-01-19T18:46:03.926Z,27.00
2023-01-19T18:48:30.962Z,23.80
2023-01-19T18:50:58.049Z,24.00
2023-01-19T18:53:25.049Z,30.90
2023-01-19T18:55:59.059Z,27.20
2023-01-19T18:58:28.761Z,29.40
2023-01-19T19:00:56.735Z,19.80
2023-01-19T19:03:23.743Z,33.50
2023-01-19T19:05:50.638Z,18.30
2023-01-19T19:08:17.721Z,30.60
2023-01-19T19:10:44.655Z,21.20
2023-01-19T19:13:12.525Z,17.00
2023-01-19T19:15:39.386Z,12.90
2023-01-19T19:18:08.989Z,23.40
2023-01-19T19:20:38.938Z,26.90
2023-01-19T19:23:05.969Z,20.30
2023-01-19T19:25:34.225Z,21.60
2023-01-19T19:28:01.183Z,30.20
2023-01-19T19:30:28.243Z,24.70
2023-01-19T19:32:56.598Z,26.00
2023-01-19T19:35:24.160Z,25.70
2023-01-19T19:37:51.814Z,33.10
2023-01-19T19:40:18.768Z,26.20
2023-01-19T19:42:45.773Z,21.30
2023-01-19T19:45:12.839Z,21.90
2023-01-19T19:47:40.538Z,23.00
2023-01-19T19:50:08.148Z,24.40
2023-01-19T19:52:41.895Z,25.60
2023-01-19T19:55:09.993Z,23.20
2023-01-19T19:57:36.893Z,21.20
2023-01-19T20:00:06.212Z,26.20
2023-01-19T20:02:38.827Z,29.10
2023-01-19T22:18:31.558Z,18.80
2023-01-19T22:21:09.732Z,46.80
2023-01-19T22:23:36.790Z,39.30
2023-01-19T22:26:04.616Z,39.30
2023-01-19T22:28:31.564Z,22.00
2023-01-19T22:31:12.300Z,26.10
2023-01-19T22:33:40.624Z,22.90
2023-01-19T22:36:16.185Z,38.00
2023-01-19T22:38:45.915Z,31.70
2023-01-19T22:41:22.110Z,41.10
2023-01-19T22:43:50.654Z,33.60
2023-01-19T22:46:22.113Z,29.20
2023-01-19T22:48:49.575Z,34.20
2023-01-19T22:51:16.846Z,33.50
2023-01-19T22:53:44.323Z,25.90
2023-01-19T22:56:16.208Z,27.90
2023-01-19T22:58:46.861Z,32.60
2023-01-19T23:01:19.128Z,36.30
2023-01-19T23:03:46.217Z,37.70
2023-01-19T23:06:19.167Z,39.30
2023-01-19T23:08:47.880Z,38.80
2023-01-19T23:11:16.973Z,47.70
2023-01-19T23:13:47.007Z,30.50
2023-01-19T23:16:14.119Z,46.40
2023-01-19T23:18:41.319Z,34.70
2023-01-19T23:21:10.421Z,41.90
2023-01-19T23:23:37.841Z,35.50
2023-01-19T23:26:12.859Z,38.70
2023-01-19T23:28:40.730Z,38.40
2023-01-19T23:31:15.571Z,39.90
2023-01-19T23:33:44.391Z,35.20
2023-01-19T23:36:12.295Z,36.40
2023-01-19T23:38:39.922Z,29.20
2023-01-19T23:41:07.152Z,39.70
2023-01-19T23:46:28.571Z,37.20
2023-01-19T23:48:55.704Z,28.90
2023-01-19T23:51:24.267Z,29.60
2023-01-19T23:53:51.249Z,41.20
2023-01-19T23:56:22.841Z,41.10
2023-01-19T23:58:54.379Z,35.40
